Horizon Reliance — WFLH — position and weather

sailwx.info

Track history (hours):
 
Tides and Currents Weather Stations Pressure Air Temp Water Temp Dewpoint Dewpoint Depression Visibility Wind Speed Wind Dir Waves Ship Positions

Horizon Reliance

Owner: Marine Transport Management, Inc, Jacksonville, FL. More information available from US FCC via Universal Licensing System and Coast Guard Vessel Documentation Center.

Last reported at 2017-Sep-22 18:00 UTC. Time now 2017-Sep-23 02:23 UTC.
Position N 29°00' W 138°00'.

Type: Cargo ship. MMSI: 366791000.

Wind from 070 at 20 knots

Barometer 1024.2 mb
Air temperature 23.3 ° C
Visibility: greater than 10.8 NM
Dewpoint 16.6 ° C
Water temperature 21.1 ° C

Date/timePositionNaut miles runAvg speedWind from/ knotsBaromVisibWave heightAir tempDewpointWater temp
2017-Sep-22 18:00N 29°00' W 138°00'12240.8 070 / 201024.210.8 23.316.621.1
2017-Sep-22 15:00N 29°42' W 135°48'12013.3 060 / 15 10.8 21.015.021.0
2017-Sep-22 06:00N 30°18' W 133°36'11819.6 060 / 191023.010.8 21.116.020.0
2017-Sep-22 00:00N 30°48' W 131°24'11919.8 360 / 201022.810.8 21.116.820.0
2017-Sep-21 18:00N 31°24' W 129°12'23619.6 030 / 251021.610.8 20.617.119.4
2017-Sep-21 06:00N 32°18' W 124°42'13119.2 340 / 221015.810.8 20.017.018.3
2017-Sep-20 23:11N 32°43' W 122°10'419.0
2017-Sep-20 23:00N 32°43' W 122°05'3719.0
2017-Sep-20 21:03N 32°50' W 121°22'119.0
2017-Sep-20 21:00N 32°50' W 121°21'918.3
2017-Sep-20 20:30N 32°52' W 121°11'918.5
2017-Sep-20 20:01N 32°54' W 120°60'918.5
2017-Sep-20 19:31N 32°55' W 120°49'918.6
2017-Sep-20 19:01N 32°57' W 120°38'918.6
2017-Sep-20 18:30N 32°59' W 120°27'1019.0
2017-Sep-20 18:00N 33°00' W 120°16'2179.3
2017-Sep-20 18:00N 33°00' W 120°18'1322.1 340 / 251014.510.8 19.416.020.6
2017-Sep-20 17:24N 33°02' W 120°02'1018.5
2017-Sep-20 16:50N 33°04' W 119°50'918.9
2017-Sep-20 16:21N 33°06' W 119°39'719.8
2017-Sep-20 15:59N 33°07' W 119°31'920.1
2017-Sep-20 15:31N 33°10' W 119°20'1020.2
2017-Sep-20 15:01N 33°16' W 119°10'2020.1
2017-Sep-20 14:01N 33°26' W 118°49'1019.6
2017-Sep-20 13:30N 33°31' W 118°39'1219.9
2017-Sep-20 12:53N 33°37' W 118°26'615.8
2017-Sep-20 12:30N 33°38' W 118°19'5 9.5
2017-Sep-20 12:00N 33°41' W 118°15'3 6.5
2017-Sep-20 11:29N 33°45' W 118°17'1 1.8
2017-Sep-20 10:55N 33°46' W 118°17'0 0.0
2017-Sep-20 10:26N 33°46' W 118°17'0 0.0
2017-Sep-20 09:26N 33°46' W 118°17'0 0.0
2017-Sep-20 08:38N 33°46' W 118°17'0 0.0
2017-Sep-20 08:20N 33°46' W 118°17'0 0.0
2017-Sep-20 07:56N 33°46' W 118°17'0 0.0
2017-Sep-20 07:20N 33°46' W 118°17'0 0.0
2017-Sep-20 06:14N 33°46' W 118°17'0 0.0
2017-Sep-20 05:59N 33°46' W 118°17'0 0.0
2017-Sep-20 02:26N 33°46' W 118°17'0 0.0
2017-Sep-19 19:11N 33°46' W 118°17'0 0.0
2017-Sep-19 18:56N 33°46' W 118°17'0 0.0
2017-Sep-19 06:44N 33°46' W 118°17'0 0.0
2017-Sep-19 06:26N 33°46' W 118°17'0 0.0
2017-Sep-19 05:56N 33°46' W 118°17'0 0.0
2017-Sep-19 05:14N 33°46' W 118°17'0 0.0
2017-Sep-19 04:44N 33°46' W 118°17'0 0.0
2017-Sep-19 00:08N 33°46' W 118°17'0 0.0
2017-Sep-18 23:53N 33°46' W 118°17'0 0.0
2017-Sep-18 20:38N 33°46' W 118°17'0 0.0
2017-Sep-18 19:11N 33°46' W 118°17'0 0.0
2017-Sep-18 19:00N 33°46' W 118°17'0 0.4
2017-Sep-18 18:29N 33°45' W 118°17'1 2.3
2017-Sep-18 18:00N 33°44' W 118°17'4 7.2
2017-Sep-18 17:30N 33°41' W 118°14'510.2
2017-Sep-18 17:00N 33°37' W 118°17'510.2
2017-Sep-18 16:30N 33°36' W 118°23'5 9.3
2017-Sep-18 16:00N 33°35' W 118°28'713.1
2017-Sep-18 15:31N 33°32' W 118°36'714.0
2017-Sep-18 15:01N 33°29' W 118°43'714.1
2017-Sep-18 14:30N 33°25' W 118°50'714.2
2017-Sep-18 14:01N 33°22' W 118°57'714.6
2017-Sep-18 13:31N 33°18' W 119°05'714.5
2017-Sep-18 13:00N 33°14' W 119°12'714.5
2017-Sep-18 12:31N 33°11' W 119°20'714.8
2017-Sep-18 12:00N 33°07' W 119°28'815.7
2017-Sep-18 11:31N 33°06' W 119°37'815.2
2017-Sep-18 11:00N 33°05' W 119°46'815.4
2017-Sep-18 10:31N 33°03' W 119°55'815.6
2017-Sep-18 10:01N 33°02' W 120°04'915.9
2017-Sep-18 09:27N 33°01' W 120°15'715.9
2017-Sep-18 09:01N 32°59' W 120°23'1315.4
2017-Sep-18 08:11N 32°57' W 120°38'315.3
2017-Sep-18 08:00N 32°57' W 120°41'714.9
2017-Sep-18 07:31N 32°55' W 120°50'6015.0
2017-Sep-18 03:29N 32°44' W 122°00'2515.0
2017-Sep-18 01:51N 32°40' W 122°29'3614.9
2017-Sep-17 23:25N 32°32' W 123°11'7214.9
2017-Sep-17 18:35N 32°17' W 124°35'1119.2
2017-Sep-17 18:00N 32°18' W 124°48'16814.0 1021.110.8 19.413.218.3
2017-Sep-17 06:00N 31°36' W 128°00'8414.0 1021.010.8 19.413.220.0
2017-Sep-17 00:00N 31°18' W 129°36'8614.3 010 / 191022.010.8 22.014.020.6
2017-Sep-16 18:00N 30°54' W 131°12'18415.3 010 / 171022.610.8 22.816.820.6
2017-Sep-16 06:00N 30°00' W 134°36'34514.4 1024.010.8 21.718.221.1
2017-Sep-15 06:00N 28°06' W 140°48'12710.6 120 / 121020.510.8 23.920.723.9
2017-Sep-14 18:00N 27°06' W 142°54'21918.3 110 / 191018.510.8 25.620.725.6
2017-Sep-14 06:00N 26°00' W 146°48'8414.0 130 / 111017.010.8 25.621.625.6
2017-Sep-14 00:00N 25°24' W 148°12'8914.8 150 / 141016.010.8 27.221.726.1
2017-Sep-13 18:00N 24°48' W 149°42'15713.1 150 / 171016.110.8 26.123.726.1
2017-Sep-13 06:00N 23°42' W 152°18'8514.2 160 / 121015.5 5.4 23.322.626.1
2017-Sep-13 00:00N 23°06' W 153°42'   220 / 3
Track history (hours):
 
Tides and Currents Weather Stations Pressure Air Temp Water Temp Dewpoint Dewpoint Depression Visibility Wind Speed Wind Dir Waves Ship Positions

Horizon Reliance

Owner: Marine Transport Management, Inc, Jacksonville, FL. More information available from US FCC via Universal Licensing System and Coast Guard Vessel Documentation Center.

Last reported at 2017-Sep-22 18:00 UTC. Time now 2017-Sep-23 02:23 UTC.
Position N 29°00' W 138°00'.

Type: Cargo ship. MMSI: 366791000.

Wind from 070 at 20 knots

Barometer 1024.2 mb
Air temperature 23.3 ° C
Visibility: greater than 10.8 NM
Dewpoint 16.6 ° C
Water temperature 21.1 ° C

Date/timePositionNaut miles runAvg speedWind from/ knotsBaromVisibWave heightAir tempDewpointWater temp
2017-Sep-22 18:00N 29°00' W 138°00'12240.8 070 / 201024.210.8 23.316.621.1
2017-Sep-22 15:00N 29°42' W 135°48'12013.3 060 / 15 10.8 21.015.021.0
2017-Sep-22 06:00N 30°18' W 133°36'11819.6 060 / 191023.010.8 21.116.020.0
2017-Sep-22 00:00N 30°48' W 131°24'11919.8 360 / 201022.810.8 21.116.820.0
2017-Sep-21 18:00N 31°24' W 129°12'23619.6 030 / 251021.610.8 20.617.119.4
2017-Sep-21 06:00N 32°18' W 124°42'13119.2 340 / 221015.810.8 20.017.018.3
2017-Sep-20 23:11N 32°43' W 122°10'419.0
2017-Sep-20 23:00N 32°43' W 122°05'3719.0
2017-Sep-20 21:03N 32°50' W 121°22'119.0
2017-Sep-20 21:00N 32°50' W 121°21'918.3
2017-Sep-20 20:30N 32°52' W 121°11'918.5
2017-Sep-20 20:01N 32°54' W 120°60'918.5
2017-Sep-20 19:31N 32°55' W 120°49'918.6
2017-Sep-20 19:01N 32°57' W 120°38'918.6
2017-Sep-20 18:30N 32°59' W 120°27'1019.0
2017-Sep-20 18:00N 33°00' W 120°16'2179.3
2017-Sep-20 18:00N 33°00' W 120°18'1322.1 340 / 251014.510.8 19.416.020.6
2017-Sep-20 17:24N 33°02' W 120°02'1018.5
2017-Sep-20 16:50N 33°04' W 119°50'918.9
2017-Sep-20 16:21N 33°06' W 119°39'719.8
2017-Sep-20 15:59N 33°07' W 119°31'920.1
2017-Sep-20 15:31N 33°10' W 119°20'1020.2
2017-Sep-20 15:01N 33°16' W 119°10'2020.1
2017-Sep-20 14:01N 33°26' W 118°49'1019.6
2017-Sep-20 13:30N 33°31' W 118°39'1219.9
2017-Sep-20 12:53N 33°37' W 118°26'615.8
2017-Sep-20 12:30N 33°38' W 118°19'5 9.5
2017-Sep-20 12:00N 33°41' W 118°15'3 6.5
2017-Sep-20 11:29N 33°45' W 118°17'1 1.8
2017-Sep-20 10:55N 33°46' W 118°17'0 0.0
2017-Sep-20 10:26N 33°46' W 118°17'0 0.0
2017-Sep-20 09:26N 33°46' W 118°17'0 0.0
2017-Sep-20 08:38N 33°46' W 118°17'0 0.0
2017-Sep-20 08:20N 33°46' W 118°17'0 0.0
2017-Sep-20 07:56N 33°46' W 118°17'0 0.0
2017-Sep-20 07:20N 33°46' W 118°17'0 0.0
2017-Sep-20 06:14N 33°46' W 118°17'0 0.0
2017-Sep-20 05:59N 33°46' W 118°17'0 0.0
2017-Sep-20 02:26N 33°46' W 118°17'0 0.0
2017-Sep-19 19:11N 33°46' W 118°17'0 0.0
2017-Sep-19 18:56N 33°46' W 118°17'0 0.0
2017-Sep-19 06:44N 33°46' W 118°17'0 0.0
2017-Sep-19 06:26N 33°46' W 118°17'0 0.0
2017-Sep-19 05:56N 33°46' W 118°17'0 0.0
2017-Sep-19 05:14N 33°46' W 118°17'0 0.0
2017-Sep-19 04:44N 33°46' W 118°17'0 0.0
2017-Sep-19 00:08N 33°46' W 118°17'0 0.0
2017-Sep-18 23:53N 33°46' W 118°17'0 0.0
2017-Sep-18 20:38N 33°46' W 118°17'0 0.0
2017-Sep-18 19:11N 33°46' W 118°17'0 0.0
2017-Sep-18 19:00N 33°46' W 118°17'0 0.4
2017-Sep-18 18:29N 33°45' W 118°17'1 2.3
2017-Sep-18 18:00N 33°44' W 118°17'4 7.2
2017-Sep-18 17:30N 33°41' W 118°14'510.2
2017-Sep-18 17:00N 33°37' W 118°17'510.2
2017-Sep-18 16:30N 33°36' W 118°23'5 9.3
2017-Sep-18 16:00N 33°35' W 118°28'713.1
2017-Sep-18 15:31N 33°32' W 118°36'714.0
2017-Sep-18 15:01N 33°29' W 118°43'714.1
2017-Sep-18 14:30N 33°25' W 118°50'714.2
2017-Sep-18 14:01N 33°22' W 118°57'714.6
2017-Sep-18 13:31N 33°18' W 119°05'714.5
2017-Sep-18 13:00N 33°14' W 119°12'714.5
2017-Sep-18 12:31N 33°11' W 119°20'714.8
2017-Sep-18 12:00N 33°07' W 119°28'815.7
2017-Sep-18 11:31N 33°06' W 119°37'815.2
2017-Sep-18 11:00N 33°05' W 119°46'815.4
2017-Sep-18 10:31N 33°03' W 119°55'815.6
2017-Sep-18 10:01N 33°02' W 120°04'915.9
2017-Sep-18 09:27N 33°01' W 120°15'715.9
2017-Sep-18 09:01N 32°59' W 120°23'1315.4
2017-Sep-18 08:11N 32°57' W 120°38'315.3
2017-Sep-18 08:00N 32°57' W 120°41'714.9
2017-Sep-18 07:31N 32°55' W 120°50'6015.0
2017-Sep-18 03:29N 32°44' W 122°00'2515.0
2017-Sep-18 01:51N 32°40' W 122°29'3614.9
2017-Sep-17 23:25N 32°32' W 123°11'7214.9
2017-Sep-17 18:35N 32°17' W 124°35'1119.2
2017-Sep-17 18:00N 32°18' W 124°48'16814.0 1021.110.8 19.413.218.3
2017-Sep-17 06:00N 31°36' W 128°00'8414.0 1021.010.8 19.413.220.0
2017-Sep-17 00:00N 31°18' W 129°36'8614.3 010 / 191022.010.8 22.014.020.6
2017-Sep-16 18:00N 30°54' W 131°12'18415.3 010 / 171022.610.8 22.816.820.6
2017-Sep-16 06:00N 30°00' W 134°36'34514.4 1024.010.8 21.718.221.1
2017-Sep-15 06:00N 28°06' W 140°48'12710.6 120 / 121020.510.8 23.920.723.9
2017-Sep-14 18:00N 27°06' W 142°54'21918.3 110 / 191018.510.8 25.620.725.6
2017-Sep-14 06:00N 26°00' W 146°48'8414.0 130 / 111017.010.8 25.621.625.6
2017-Sep-14 00:00N 25°24' W 148°12'8914.8 150 / 141016.010.8 27.221.726.1
2017-Sep-13 18:00N 24°48' W 149°42'15713.1 150 / 171016.110.8 26.123.726.1
2017-Sep-13 06:00N 23°42' W 152°18'8514.2 160 / 121015.5 5.4 23.322.626.1
2017-Sep-13 00:00N 23°06' W 153°42'   220 / 3

Dump ship's entire track history